Arcadia, North Carolina
Current Conditions -  °F | °C
As of 5:15 PM on Tuesday 21 Oct 2014 (Local Time) from KEXX Reporting Station
Clear Clear  
Wind Chill: 69°   Ceiling: Unl
Heat Index: 69°   Visibility: 10mi
Dew Point: 41°   Wind: 6mph
Humidity: 36%   Direction: 290°WNW
Pressure: 29.87"   Gusts: NA
Location:  35.7974°N, 80.2541°W
Report Text: KEXX 212115Z AUTO 29005KT 10SM CLR 21/05 A2987 RMK AO2 T02050050
Loading
Personal Weather Stations






























Interactive Weather Map
Tropical Storm Tracking
New forecast layout! Learn more

10-Day Weather Forecast

Advertisements
Track Severe Weather on mobile